Time;durP1;ratioP1;P1;durP2;ratioP2;P2;SDS_P1;SDS_P2;PMS_P1;PMS_P2;Temp;Humidity;BMP_temperature;BMP_pressure;BME280_temperature;BME280_humidity;BME280_pressure;Samples;Min_cycle;Max_cycle;Signal;HPM_P1;HPM_P2
2021/05/17 00:00:14;;;;;;;5.10;2.58;;;24.60;44.00;;;;;;6159744;28;80387;-69
2021/05/17 00:03:16;;;;;;;2.97;2.25;;;24.60;44.10;;;;;;6157054;28;81086;-69
2021/05/17 00:06:17;;;;;;;3.67;2.42;;;24.70;44.70;;;;;;6156171;28;80973;-68
2021/05/17 00:09:17;;;;;;;3.10;2.30;;;24.60;45.00;;;;;;6158327;28;80954;-67
2021/05/17 00:12:18;;;;;;;2.95;2.20;;;24.60;45.40;;;;;;6180976;28;81856;-68
2021/05/17 00:15:18;;;;;;;2.22;1.92;;;24.70;44.90;;;;;;6157640;28;81127;-68
2021/05/17 00:18:19;;;;;;;3.47;2.58;;;24.70;45.10;;;;;;6183343;28;80304;-68
2021/05/17 00:21:19;;;;;;;2.88;2.38;;;24.60;45.00;;;;;;6156401;28;80988;-68
2021/05/17 00:24:20;;;;;;;5.43;2.53;;;24.70;44.60;;;;;;6164905;28;80413;-69
2021/05/17 00:27:20;;;;;;;2.25;2.00;;;24.60;45.20;;;;;;6157212;28;80794;-67
2021/05/17 00:30:21;;;;;;;2.97;2.60;;;24.60;45.10;;;;;;6156986;28;81261;-68
2021/05/17 00:33:21;;;;;;;4.75;2.25;;;24.60;45.30;;;;;;6156039;28;83180;-67
2021/05/17 00:36:22;;;;;;;3.20;2.30;;;24.60;44.40;;;;;;6154249;28;80755;-68
2021/05/17 00:39:22;;;;;;;3.00;2.10;;;24.60;44.80;;;;;;6156233;28;82224;-67
2021/05/17 00:42:23;;;;;;;4.13;2.10;;;24.60;44.50;;;;;;6155905;28;80714;-68
2021/05/17 00:45:23;;;;;;;3.75;2.40;;;24.70;44.80;;;;;;6180551;28;81059;-68
2021/05/17 00:48:24;;;;;;;2.30;2.08;;;24.60;44.70;;;;;;6182361;28;92256;-68
2021/05/17 00:51:25;;;;;;;4.35;2.15;;;24.60;43.70;;;;;;6184666;28;80457;-69
2021/05/17 00:54:25;;;;;;;2.60;2.30;;;24.60;43.50;;;;;;6187750;28;80415;-68
2021/05/17 00:57:26;;;;;;;3.90;2.30;;;24.60;43.30;;;;;;6168302;28;81059;-68
2021/05/17 01:00:26;;;;;;;3.38;2.15;;;24.60;44.00;;;;;;6175033;28;83215;-68
2021/05/17 01:03:30;;;;;;;3.22;2.25;;;24.60;43.80;;;;;;6155051;28;83495;-68
2021/05/17 01:06:46;;;;;;;3.70;2.50;;;24.60;43.90;;;;;;6168440;28;81578;-68
2021/05/17 01:09:46;;;;;;;2.70;2.10;;;24.60;43.60;;;;;;6156006;28;82794;-68
2021/05/17 01:12:47;;;;;;;4.72;2.15;;;24.60;43.80;;;;;;6151222;28;82899;-68
2021/05/17 01:15:49;;;;;;;2.78;2.33;;;24.60;44.00;;;;;;6161125;28;82776;-67
2021/05/17 01:18:50;;;;;;;4.25;2.05;;;24.60;43.90;;;;;;6187363;28;80423;-68
2021/05/17 01:21:53;;;;;;;2.72;2.05;;;24.60;44.00;;;;;;6178963;28;80446;-69
2021/05/17 01:24:55;;;;;;;2.53;2.05;;;24.60;44.20;;;;;;6176565;28;83431;-68
2021/05/17 01:27:56;;;;;;;2.63;2.20;;;24.60;44.00;;;;;;6178595;28;82255;-68
2021/05/17 01:30:58;;;;;;;3.25;2.20;;;24.60;44.40;;;;;;6151575;28;81951;-68
2021/05/17 01:33:58;;;;;;;3.22;2.20;;;24.60;44.00;;;;;;6153219;28;81366;-69
2021/05/17 01:36:59;;;;;;;3.08;2.20;;;24.60;44.50;;;;;;6154215;28;80235;-68
2021/05/17 01:39:59;;;;;;;2.33;1.92;;;24.60;44.20;;;;;;6170788;28;82211;-68
2021/05/17 01:43:00;;;;;;;2.20;1.90;;;24.60;44.40;;;;;;6156270;28;80453;-68
2021/05/17 01:46:01;;;;;;;3.53;2.17;;;24.60;44.20;;;;;;6160018;28;80587;-68
2021/05/17 01:49:02;;;;;;;5.43;2.30;;;24.60;44.00;;;;;;6158098;28;80637;-67
2021/05/17 01:52:05;;;;;;;3.28;2.33;;;24.60;43.60;;;;;;6158221;28;83032;-68
2021/05/17 01:55:06;;;;;;;2.95;2.38;;;24.60;43.80;;;;;;6173886;28;81443;-68
2021/05/17 01:58:07;;;;;;;2.78;2.03;;;24.60;43.90;;;;;;6181141;28;82954;-68
2021/05/17 02:01:09;;;;;;;2.95;2.30;;;24.60;44.20;;;;;;6181474;28;83223;-69
2021/05/17 02:04:09;;;;;;;2.85;1.85;;;24.60;44.10;;;;;;6184430;28;81467;-69
2021/05/17 02:07:11;;;;;;;3.17;2.20;;;24.60;44.10;;;;;;6182643;28;82846;-68
2021/05/17 02:10:12;;;;;;;4.78;2.25;;;24.60;44.30;;;;;;6201604;28;83031;-68
2021/05/17 02:13:13;;;;;;;3.20;2.28;;;24.60;43.90;;;;;;6192838;28;81719;-68
2021/05/17 02:16:15;;;;;;;2.85;2.15;;;24.60;44.50;;;;;;6167709;28;81223;-69
2021/05/17 02:19:16;;;;;;;2.90;2.20;;;24.60;44.10;;;;;;6172705;28;81494;-68
2021/05/17 02:22:17;;;;;;;4.82;2.47;;;24.50;43.90;;;;;;6168160;28;83346;-68
2021/05/17 02:25:27;;;;;;;3.38;2.78;;;24.60;44.00;;;;;;6197249;28;81563;-69
2021/05/17 02:28:32;;;;;;;3.60;2.72;;;24.50;44.30;;;;;;6170038;28;82772;-69
2021/05/17 02:31:33;;;;;;;3.85;2.60;;;24.50;43.80;;;;;;6156712;28;83123;-69
2021/05/17 02:34:35;;;;;;;3.83;2.47;;;24.60;44.00;;;;;;6168750;28;82767;-69
2021/05/17 02:37:35;;;;;;;3.28;2.25;;;24.50;44.00;;;;;;6183435;28;80248;-69
2021/05/17 02:40:36;;;;;;;4.03;2.95;;;24.50;43.90;;;;;;6190020;28;80348;-68
2021/05/17 02:43:38;;;;;;;3.28;2.50;;;24.50;43.50;;;;;;6189856;28;83231;-69
2021/05/17 02:46:47;;;;;;;2.50;2.20;;;24.50;43.30;;;;;;6171584;28;81352;-68
2021/05/17 02:49:48;;;;;;;4.18;2.55;;;24.50;43.40;;;;;;6169590;28;80972;-68
2021/05/17 02:52:48;;;;;;;3.97;2.78;;;24.60;43.20;;;;;;6166737;28;81236;-68
2021/05/17 02:55:49;;;;;;;4.18;2.90;;;24.50;43.30;;;;;;6170437;28;82150;-68
2021/05/17 02:58:49;;;;;;;2.53;2.25;;;24.50;43.80;;;;;;6172193;28;81652;-68
2021/05/17 03:01:51;;;;;;;2.30;2.10;;;24.50;44.00;;;;;;6158723;28;81825;-72
2021/05/17 03:04:52;;;;;;;2.65;2.30;;;24.60;43.90;;;;;;6172304;28;80442;-68
2021/05/17 03:07:53;;;;;;;2.67;2.47;;;24.60;44.30;;;;;;6167484;28;82898;-68
2021/05/17 03:10:54;;;;;;;5.20;2.28;;;24.60;43.80;;;;;;6156761;28;83239;-68
2021/05/17 03:13:54;;;;;;;3.88;2.47;;;24.50;43.80;;;;;;6156659;28;80120;-69
2021/05/17 03:16:55;;;;;;;3.08;2.28;;;24.50;43.50;;;;;;6186095;28;82659;-68
2021/05/17 03:19:57;;;;;;;4.07;2.47;;;24.60;43.50;;;;;;6197956;28;81845;-69
2021/05/17 03:22:57;;;;;;;2.85;2.35;;;24.50;43.40;;;;;;6197849;28;82747;-69
2021/05/17 03:25:58;;;;;;;2.97;2.28;;;24.60;44.60;;;;;;6184372;28;80424;-69
2021/05/17 03:28:58;;;;;;;3.33;2.50;;;24.50;43.60;;;;;;6184489;28;80379;-69
2021/05/17 03:31:59;;;;;;;3.67;2.13;;;24.50;43.60;;;;;;6183168;28;81475;-69
2021/05/17 03:35:00;;;;;;;4.25;2.75;;;24.50;43.40;;;;;;6166620;28;81023;-69
2021/05/17 03:38:00;;;;;;;3.78;2.63;;;24.50;43.00;;;;;;6156626;28;82537;-69
2021/05/17 03:41:01;;;;;;;4.32;2.38;;;24.50;43.20;;;;;;6157456;28;81818;-69
2021/05/17 03:44:01;;;;;;;2.75;2.22;;;24.50;43.50;;;;;;6157419;28;80281;-69
2021/05/17 03:47:02;;;;;;;3.78;2.25;;;24.50;43.90;;;;;;6157601;28;81087;-69
2021/05/17 03:50:02;;;;;;;3.60;2.03;;;24.50;44.00;;;;;;6153054;28;80529;-69
2021/05/17 03:53:03;;;;;;;4.20;2.40;;;24.50;44.30;;;;;;6173521;28;82287;-69
2021/05/17 03:56:03;;;;;;;2.40;2.20;;;24.50;44.40;;;;;;6182755;28;80499;-69
2021/05/17 03:59:04;;;;;;;2.83;2.28;;;24.50;44.10;;;;;;6181009;28;92279;-69
2021/05/17 04:02:05;;;;;;;2.80;2.28;;;24.50;43.90;;;;;;6181145;28;80251;-69
2021/05/17 04:15:00;;;;;;;2.78;2.03;;;24.50;44.60;;;;;;6181766;28;80399;-70
2021/05/17 04:18:00;;;;;;;3.47;2.25;;;24.50;43.70;;;;;;6180924;28;80529;-70
2021/05/17 04:21:01;;;;;;;2.90;2.20;;;24.50;44.10;;;;;;6174098;28;80783;-68
2021/05/17 04:24:01;;;;;;;3.17;2.25;;;24.50;44.10;;;;;;6181399;28;80303;-68
2021/05/17 04:27:02;;;;;;;3.25;2.45;;;24.50;43.70;;;;;;6179341;28;81189;-67
2021/05/17 04:30:02;;;;;;;3.92;2.53;;;24.50;43.80;;;;;;6189085;28;80516;-69
2021/05/17 04:33:03;;;;;;;2.60;2.20;;;24.50;43.50;;;;;;6194917;28;80539;-68
2021/05/17 04:36:03;;;;;;;3.88;2.10;;;24.50;43.30;;;;;;6172154;28;80713;-68
2021/05/17 04:39:04;;;;;;;4.70;2.47;;;24.50;43.00;;;;;;6186348;28;80526;-67
2021/05/17 04:42:05;;;;;;;3.72;2.28;;;24.50;43.00;;;;;;6156696;28;80454;-66
2021/05/17 04:45:06;;;;;;;6.50;2.30;;;24.50;43.20;;;;;;6155628;28;80238;-66
2021/05/17 04:48:07;;;;;;;4.78;2.13;;;24.60;43.50;;;;;;6179677;28;80485;-67
2021/05/17 04:51:07;;;;;;;3.08;2.30;;;24.50;43.60;;;;;;6153883;28;81053;-66
2021/05/17 04:54:08;;;;;;;3.78;2.30;;;24.60;43.90;;;;;;6156508;28;80456;-68
2021/05/17 04:57:08;;;;;;;4.13;2.38;;;24.50;43.70;;;;;;6178609;28;80682;-67
2021/05/17 05:00:09;;;;;;;2.72;2.10;;;24.50;44.30;;;;;;6156296;28;80410;-67
2021/05/17 05:03:09;;;;;;;6.75;2.25;;;24.50;43.80;;;;;;6179171;28;85950;-66
2021/05/17 05:06:10;;;;;;;6.70;2.88;;;24.60;44.60;;;;;;6180625;28;80583;-66
2021/05/17 05:09:10;;;;;;;5.78;2.55;;;24.50;43.50;;;;;;6156912;28;80431;-66
2021/05/17 05:12:11;;;;;;;5.75;3.28;;;24.50;44.00;;;;;;6186846;28;80410;-66
2021/05/17 05:15:11;;;;;;;7.13;3.42;;;24.60;43.40;;;;;;6155276;28;80849;-66
2021/05/17 05:18:12;;;;;;;6.68;3.63;;;24.50;44.00;;;;;;6177966;28;80431;-66
2021/05/17 05:21:12;;;;;;;4.97;3.10;;;24.50;44.10;;;;;;6177091;28;80736;-66
2021/05/17 05:24:13;;;;;;;4.70;3.83;;;24.50;44.00;;;;;;6183451;28;80999;-66
2021/05/17 05:27:27;;;;;;;5.90;3.65;;;24.60;43.60;;;;;;6180743;28;80562;-64
2021/05/17 05:34:01;;;;;;;9.68;2.80;;;24.60;43.50;;;;;;6164983;28;81091;-66
2021/05/17 05:37:02;;;;;;;5.35;2.90;;;24.60;43.20;;;;;;6180214;28;80658;-66
2021/05/17 05:40:05;;;;;;;9.57;3.17;;;24.60;43.10;;;;;;6169727;28;82036;-66
2021/05/17 05:43:06;;;;;;;6.78;2.88;;;24.60;43.10;;;;;;6196907;28;80745;-63
2021/05/17 05:46:06;;;;;;;3.70;2.63;;;24.60;43.30;;;;;;6176706;28;80817;-64
2021/05/17 05:49:08;;;;;;;4.47;2.90;;;24.60;42.60;;;;;;6159081;28;80621;-66
2021/05/17 05:52:08;;;;;;;4.30;2.55;;;24.60;43.10;;;;;;6159801;28;80524;-66
2021/05/17 05:55:09;;;;;;;9.35;2.85;;;24.60;43.20;;;;;;6159477;28;80545;-64
2021/05/17 05:58:09;;;;;;;8.63;3.10;;;24.60;43.60;;;;;;6158639;28;80675;-65
2021/05/17 06:01:10;;;;;;;7.55;3.20;;;24.60;43.40;;;;;;6157581;28;82064;-64
2021/05/17 06:04:11;;;;;;;6.35;4.05;;;24.60;43.10;;;;;;6165602;28;81436;-67
2021/05/17 06:07:11;;;;;;;6.20;3.17;;;24.60;43.60;;;;;;6163913;28;80720;-66
2021/05/17 06:10:12;;;;;;;5.38;3.17;;;24.60;44.20;;;;;;6181945;28;82950;-67
2021/05/17 06:13:12;;;;;;;8.05;3.97;;;24.60;43.60;;;;;;6184769;28;80377;-67
2021/05/17 06:16:13;;;;;;;8.00;3.42;;;24.60;43.20;;;;;;6161483;28;81047;-67
2021/05/17 06:19:13;;;;;;;9.18;3.20;;;24.60;42.60;;;;;;6156894;28;83110;-60
2021/05/17 06:22:14;;;;;;;7.03;3.13;;;24.60;42.60;;;;;;6159213;28;80721;-68
2021/05/17 06:25:14;;;;;;;8.07;3.67;;;24.60;42.80;;;;;;6188264;28;80435;-66
2021/05/17 06:28:19;;;;;;;6.70;3.22;;;24.60;42.90;;;;;;6196188;27;80475;-65
2021/05/17 06:31:21;;;;;;;9.07;3.90;;;24.60;43.20;;;;;;6183857;28;80388;-65
2021/05/17 06:34:21;;;;;;;4.55;2.97;;;24.60;42.90;;;;;;6159835;28;80452;-63
2021/05/17 06:37:22;;;;;;;16.83;3.83;;;24.60;42.60;;;;;;6158283;28;80942;-66
2021/05/17 06:40:22;;;;;;;4.38;2.97;;;24.60;43.30;;;;;;6155808;28;80684;-66
2021/05/17 06:43:23;;;;;;;7.20;3.20;;;24.60;43.30;;;;;;6143921;28;80498;-67
2021/05/17 06:46:23;;;;;;;5.40;3.47;;;24.70;43.40;;;;;;6155777;28;81054;-67
2021/05/17 06:49:26;;;;;;;6.82;3.13;;;24.60;43.50;;;;;;6158956;28;80601;-69
2021/05/17 06:52:27;;;;;;;4.88;2.80;;;24.60;43.50;;;;;;6157017;28;85184;-67
2021/05/17 06:55:37;;;;;;;4.25;2.90;;;24.60;43.50;;;;;;6159193;28;82089;-68
2021/05/17 06:58:52;;;;;;;6.22;2.97;;;24.60;43.60;;;;;;6158101;28;80886;-67
2021/05/17 07:01:55;;;;;;;7.63;2.60;;;24.70;43.70;;;;;;6159186;28;82229;-66
2021/05/17 07:04:55;;;;;;;5.88;2.53;;;24.70;43.80;;;;;;6163514;28;80547;-67
2021/05/17 07:14:22;;;;;;;6.18;2.50;;;24.70;44.10;;;;;;6186564;28;80889;-67
2021/05/17 07:17:22;;;;;;;3.72;2.55;;;24.70;43.90;;;;;;6176172;28;80175;-66
2021/05/17 07:20:34;;;;;;;6.82;2.80;;;24.70;43.60;;;;;;6165611;28;80967;-67
2021/05/17 07:23:39;;;;;;;8.00;3.22;;;24.80;44.00;;;;;;6181920;28;83688;-66
2021/05/17 07:26:40;;;;;;;6.30;2.42;;;24.70;44.00;;;;;;6169498;28;80994;-65
2021/05/17 07:29:40;;;;;;;3.60;2.42;;;24.70;43.90;;;;;;6156212;28;80252;-67
2021/05/17 07:32:41;;;;;;;7.97;2.67;;;24.70;44.10;;;;;;6158147;28;83372;-67
2021/05/17 07:35:41;;;;;;;6.22;2.28;;;24.80;44.30;;;;;;6167536;28;80350;-68
2021/05/17 07:38:42;;;;;;;3.53;2.03;;;24.80;43.90;;;;;;6170738;28;82044;-69
2021/05/17 07:41:44;;;;;;;6.93;2.70;;;24.80;44.00;;;;;;6157843;28;80688;-67
2021/05/17 07:44:44;;;;;;;5.95;2.72;;;24.80;44.00;;;;;;6168083;28;80495;-68
2021/05/17 07:47:45;;;;;;;3.72;1.95;;;24.80;44.10;;;;;;6171520;28;80542;-68
2021/05/17 07:50:45;;;;;;;3.78;2.45;;;24.80;44.60;;;;;;6162766;28;80458;-66
2021/05/17 07:53:46;;;;;;;4.60;2.45;;;24.80;44.40;;;;;;6181682;28;80370;-68
2021/05/17 07:56:47;;;;;;;4.25;2.30;;;24.80;44.30;;;;;;6180788;28;83782;-66
2021/05/17 07:59:47;;;;;;;2.65;1.90;;;24.80;44.40;;;;;;6171724;28;81796;-66
2021/05/17 08:02:48;;;;;;;4.03;2.20;;;24.90;44.40;;;;;;6168377;28;81313;-66
2021/05/17 08:05:49;;;;;;;4.88;2.40;;;24.90;44.60;;;;;;6182254;28;80358;-66
2021/05/17 08:08:49;;;;;;;4.30;2.30;;;24.90;44.30;;;;;;6168846;28;81271;-67
2021/05/17 08:11:50;;;;;;;3.97;2.28;;;24.90;44.60;;;;;;6169755;28;80838;-67
2021/05/17 08:14:51;;;;;;;6.35;2.00;;;24.90;44.60;;;;;;6180210;28;80610;-67
2021/05/17 08:17:51;;;;;;;4.45;2.40;;;24.90;44.50;;;;;;6180666;28;80835;-68
2021/05/17 08:20:52;;;;;;;3.75;2.05;;;24.90;44.10;;;;;;6170253;28;83275;-68
2021/05/17 08:23:55;;;;;;;4.57;2.67;;;24.90;44.00;;;;;;6168652;28;80679;-68
2021/05/17 08:26:56;;;;;;;2.92;1.85;;;24.90;44.00;;;;;;6165572;28;80844;-68
2021/05/17 08:29:56;;;;;;;2.72;2.05;;;24.90;44.00;;;;;;6169345;28;80578;-68
2021/05/17 08:32:57;;;;;;;3.53;2.00;;;24.90;43.90;;;;;;6172661;28;90129;-68
2021/05/17 08:35:58;;;;;;;3.33;2.10;;;24.90;43.90;;;;;;6165571;28;80817;-68
2021/05/17 08:38:58;;;;;;;4.95;2.25;;;24.90;44.00;;;;;;6169510;28;80443;-67
2021/05/17 08:41:59;;;;;;;2.60;2.03;;;24.90;44.10;;;;;;6173696;28;80235;-67
2021/05/17 08:45:00;;;;;;;3.22;2.03;;;24.90;45.00;;;;;;6156019;28;80623;-67
2021/05/17 08:48:01;;;;;;;5.53;1.70;;;24.90;44.80;;;;;;6157768;28;80940;-66
2021/05/17 08:51:01;;;;;;;3.83;2.15;;;24.90;44.50;;;;;;6156854;28;80662;-66
2021/05/17 08:54:05;;;;;;;5.43;1.80;;;24.80;43.80;;;;;;6169384;28;81020;-67
2021/05/17 08:57:05;;;;;;;4.05;2.00;;;24.80;44.10;;;;;;6167154;28;81326;-67
2021/05/17 09:00:06;;;;;;;4.75;2.00;;;24.80;44.50;;;;;;6170424;28;82879;-65
2021/05/17 09:03:06;;;;;;;3.58;2.28;;;24.70;44.30;;;;;;6185356;28;80395;-65
2021/05/17 09:06:07;;;;;;;4.18;2.13;;;24.80;44.40;;;;;;6182111;28;81184;-66
2021/05/17 09:09:08;;;;;;;2.95;2.03;;;24.80;43.90;;;;;;6183892;28;80747;-66
2021/05/17 09:12:08;;;;;;;3.88;2.10;;;24.70;44.20;;;;;;6172314;28;81082;-67
2021/05/17 09:15:09;;;;;;;4.38;2.28;;;24.70;45.00;;;;;;6164096;28;82310;-66
2021/05/17 09:18:16;;;;;;;3.38;2.17;;;24.70;44.90;;;;;;6159817;28;80422;-67
2021/05/17 09:21:16;;;;;;;4.53;2.40;;;24.70;44.40;;;;;;6175285;28;80849;-67
2021/05/17 09:24:17;;;;;;;4.22;2.40;;;24.70;44.00;;;;;;6174789;28;80545;-67
2021/05/17 09:27:18;;;;;;;4.82;2.35;;;24.70;44.00;;;;;;6160970;28;80682;-67
2021/05/17 09:30:18;;;;;;;6.18;2.40;;;24.70;44.40;;;;;;6173186;28;81015;-68
2021/05/17 09:33:19;;;;;;;3.05;2.33;;;24.70;44.00;;;;;;6180929;28;80626;-67
2021/05/17 09:36:19;;;;;;;6.85;2.70;;;24.70;44.10;;;;;;6169141;28;81930;-68
2021/05/17 09:39:20;;;;;;;6.45;2.40;;;24.70;44.00;;;;;;6179309;28;80380;-65
2021/05/17 09:42:20;;;;;;;15.75;8.05;;;24.70;44.40;;;;;;6183563;28;81377;-66
2021/05/17 09:45:21;;;;;;;66.63;26.10;;;24.70;44.90;;;;;;6179488;28;80755;-65
2021/05/17 09:48:21;;;;;;;190.55;70.82;;;24.70;45.00;;;;;;6161622;28;83313;-67
2021/05/17 09:51:22;;;;;;;172.48;70.93;;;24.70;45.40;;;;;;6155074;28;86904;-68
2021/05/17 09:54:22;;;;;;;216.75;86.30;;;24.70;45.30;;;;;;6171166;28;83530;-68
2021/05/17 09:57:23;;;;;;;204.48;82.90;;;24.70;44.90;;;;;;6164101;28;84066;-69
2021/05/17 10:00:31;;;;;;;183.23;71.97;;;24.70;44.70;;;;;;6170990;28;83306;-66
2021/05/17 10:03:32;;;;;;;161.23;64.43;;;24.70;45.10;;;;;;6179431;28;83885;-68
2021/05/17 10:06:33;;;;;;;140.88;58.40;;;24.80;47.20;;;;;;6182488;28;83639;-67
2021/05/17 10:09:33;;;;;;;164.90;63.90;;;24.70;47.70;;;;;;6180322;28;82832;-66
2021/05/17 10:12:34;;;;;;;111.13;44.78;;;24.80;47.90;;;;;;6179079;28;83311;-68
2021/05/17 10:15:34;;;;;;;106.38;41.45;;;24.80;46.60;;;;;;6179302;28;83799;-68
2021/05/17 10:18:35;;;;;;;77.43;34.90;;;24.70;46.00;;;;;;6180097;28;84067;-68
2021/05/17 10:21:35;;;;;;;77.72;31.33;;;24.70;46.00;;;;;;6158595;28;83725;-67
2021/05/17 10:24:36;;;;;;;69.57;27.25;;;24.80;46.00;;;;;;6155825;28;83271;-67
2021/05/17 10:27:36;;;;;;;69.47;27.60;;;24.70;45.50;;;;;;6173643;28;82987;-67
2021/05/17 10:30:37;;;;;;;52.72;21.50;;;24.70;46.20;;;;;;6175931;28;83543;-68
2021/05/17 10:33:38;;;;;;;49.30;20.40;;;24.70;45.50;;;;;;6162535;28;83228;-67
2021/05/17 10:36:38;;;;;;;60.15;19.10;;;24.70;45.10;;;;;;6155490;28;84346;-67
2021/05/17 10:39:41;;;;;;;40.72;15.63;;;24.70;44.70;;;;;;6154217;28;83275;-66
2021/05/17 10:42:55;;;;;;;29.90;13.93;;;24.70;44.90;;;;;;6151703;28;83730;-67
2021/05/17 10:48:56;;;;;;;25.70;11.43;;;24.70;45.00;;;;;;6179876;28;83554;-68
2021/05/17 10:51:56;;;;;;;25.67;10.85;;;24.70;44.30;;;;;;6159940;28;83982;-68
2021/05/17 10:54:57;;;;;;;23.85;11.20;;;24.70;44.00;;;;;;6154980;28;83305;-68
2021/05/17 11:00:58;;;;;;;24.10;9.25;;;24.70;44.10;;;;;;6158307;28;82760;-68
2021/05/17 11:03:58;;;;;;;18.95;8.38;;;24.70;44.00;;;;;;6186278;28;82545;-68
2021/05/17 11:06:59;;;;;;;15.23;7.28;;;24.60;43.80;;;;;;6188651;28;80397;-65
2021/05/17 11:10:00;;;;;;;16.65;6.47;;;24.60;43.70;;;;;;6162990;28;82815;-66
2021/05/17 11:13:00;;;;;;;10.90;5.97;;;24.60;44.00;;;;;;6151512;28;80876;-67
2021/05/17 11:16:01;;;;;;;15.23;7.18;;;24.60;43.90;;;;;;6177821;28;81112;-67
2021/05/17 11:19:01;;;;;;;15.52;5.80;;;24.60;43.90;;;;;;6181951;28;81118;-68
2021/05/17 11:22:02;;;;;;;10.57;5.78;;;24.60;43.80;;;;;;6156982;28;80601;-67
2021/05/17 11:25:02;;;;;;;11.70;5.13;;;24.60;43.60;;;;;;6179268;28;81173;-67
2021/05/17 11:28:03;;;;;;;12.32;5.85;;;24.60;44.30;;;;;;6182917;28;80910;-67
2021/05/17 11:31:04;;;;;;;15.02;4.88;;;24.60;43.60;;;;;;6149958;28;81577;-68
2021/05/17 11:34:05;;;;;;;14.75;5.38;;;24.60;44.50;;;;;;6173498;28;80703;-68
2021/05/17 11:37:05;;;;;;;10.35;4.20;;;24.70;44.00;;;;;;6155682;28;80647;-68
2021/05/17 11:40:06;;;;;;;9.82;5.32;;;24.70;44.00;;;;;;6177990;28;81195;-68
2021/05/17 11:43:06;;;;;;;10.68;4.35;;;24.70;43.80;;;;;;6151027;28;80357;-68
2021/05/17 11:46:07;;;;;;;8.57;4.65;;;24.70;43.70;;;;;;6172263;28;81559;-68
2021/05/17 11:49:07;;;;;;;7.75;4.18;;;24.70;43.40;;;;;;6158492;28;80838;-69
2021/05/17 11:52:08;;;;;;;10.32;4.43;;;24.70;43.70;;;;;;6179338;28;80624;-66
2021/05/17 11:55:10;;;;;;;10.50;4.70;;;24.70;43.60;;;;;;6156583;28;81485;-67
2021/05/17 11:58:10;;;;;;;9.10;4.78;;;24.70;43.60;;;;;;6177192;28;80809;-67
2021/05/17 12:01:11;;;;;;;15.05;5.40;;;24.70;43.80;;;;;;6191822;28;81319;-69
2021/05/17 12:04:11;;;;;;;9.15;5.18;;;24.70;43.60;;;;;;6154535;28;80125;-68
2021/05/17 12:07:12;;;;;;;19.88;6.45;;;24.70;43.60;;;;;;6154072;28;82807;-68
2021/05/17 12:10:12;;;;;;;10.50;4.93;;;24.70;44.10;;;;;;6154993;28;82165;-68
2021/05/17 12:13:16;;;;;;;10.57;5.25;;;24.70;44.10;;;;;;6154975;28;80602;-68
2021/05/17 12:16:16;;;;;;;17.17;5.82;;;24.60;44.20;;;;;;6178939;28;80763;-69
2021/05/17 12:19:17;;;;;;;11.25;4.75;;;24.60;44.40;;;;;;6174471;28;80588;-67
2021/05/17 12:22:17;;;;;;;13.57;6.07;;;24.70;44.70;;;;;;6175501;28;81649;-66
2021/05/17 12:25:18;;;;;;;10.35;5.47;;;24.70;44.70;;;;;;6179392;28;80539;-69
2021/05/17 12:28:19;;;;;;;7.43;5.15;;;24.70;44.90;;;;;;6177812;28;81171;-69
2021/05/17 12:31:19;;;;;;;9.32;4.93;;;24.70;45.20;;;;;;6180348;28;80391;-69
2021/05/17 12:34:20;;;;;;;9.60;4.78;;;24.70;45.20;;;;;;6187619;28;80434;-69
2021/05/17 12:37:20;;;;;;;7.88;4.95;;;24.70;45.10;;;;;;6183711;28;81519;-69
2021/05/17 12:40:21;;;;;;;7.97;4.35;;;24.60;45.40;;;;;;6158798;27;82657;-69
2021/05/17 12:43:22;;;;;;;7.20;4.40;;;24.60;45.50;;;;;;6156340;28;81816;-69
2021/05/17 12:46:22;;;;;;;8.20;4.60;;;24.60;45.40;;;;;;6174959;28;81770;-69
2021/05/17 12:49:23;;;;;;;8.85;4.13;;;24.60;45.70;;;;;;6195179;28;82603;-69
2021/05/17 12:52:24;;;;;;;6.80;4.03;;;24.60;46.00;;;;;;6171230;28;80207;-67
2021/05/17 12:55:25;;;;;;;7.28;4.20;;;24.60;45.50;;;;;;6180403;28;80343;-67
2021/05/17 12:58:26;;;;;;;6.80;4.38;;;24.60;45.60;;;;;;6192407;28;80736;-67
2021/05/17 13:01:26;;;;;;;8.25;3.67;;;24.60;45.60;;;;;;6181509;28;80294;-68
2021/05/17 13:04:28;;;;;;;7.30;3.58;;;24.60;45.70;;;;;;6158008;28;81164;-66
2021/05/17 13:07:28;;;;;;;8.38;3.35;;;24.60;45.60;;;;;;6176386;28;86328;-68
2021/05/17 13:10:28;;;;;;;8.75;3.53;;;24.60;46.90;;;;;;6178382;28;81000;-67
2021/05/17 13:13:29;;;;;;;6.10;3.25;;;24.60;46.00;;;;;;6169548;28;81529;-67
2021/05/17 13:16:30;;;;;;;6.93;3.75;;;24.60;46.10;;;;;;6181294;28;81588;-67
2021/05/17 13:32:49;;;;;;;9.48;3.28;;;24.70;46.90;;;;;;6180282;28;80773;-68
2021/05/17 13:35:50;;;;;;;4.88;3.28;;;24.70;46.80;;;;;;6168164;28;80268;-68
2021/05/17 13:38:50;;;;;;;6.20;3.75;;;24.70;46.90;;;;;;6168737;28;81534;-68
2021/05/17 13:41:51;;;;;;;6.43;3.42;;;24.70;47.10;;;;;;6169340;28;81230;-66
2021/05/17 13:44:51;;;;;;;6.70;3.55;;;24.60;46.70;;;;;;6156447;28;81465;-67
2021/05/17 13:47:52;;;;;;;6.40;3.38;;;24.70;46.50;;;;;;6167513;28;83319;-67
2021/05/17 13:50:52;;;;;;;5.60;3.03;;;24.60;46.60;;;;;;6174481;28;82592;-67
2021/05/17 13:53:54;;;;;;;7.90;3.60;;;24.60;46.30;;;;;;6196440;28;80385;-67
2021/05/17 13:56:55;;;;;;;5.93;3.53;;;24.60;46.50;;;;;;6189592;28;83394;-68
2021/05/17 13:59:55;;;;;;;6.55;2.83;;;24.60;46.60;;;;;;6193027;28;80535;-67
2021/05/17 14:02:56;;;;;;;5.45;2.95;;;24.50;46.20;;;;;;6171053;28;80542;-67
2021/05/17 14:05:56;;;;;;;5.50;2.92;;;24.50;46.00;;;;;;6171287;28;81166;-67
2021/05/17 14:08:57;;;;;;;3.75;2.42;;;24.50;46.10;;;;;;6179150;28;84057;-67
2021/05/17 14:11:59;;;;;;;3.60;2.38;;;24.40;46.10;;;;;;6185306;28;81617;-67
2021/05/17 14:14:59;;;;;;;6.95;2.72;;;24.40;46.00;;;;;;6184776;28;81082;-66
2021/05/17 14:18:00;;;;;;;8.45;2.80;;;24.40;45.90;;;;;;6172705;28;80479;-67
2021/05/17 14:21:00;;;;;;;7.85;2.90;;;24.40;46.10;;;;;;6172191;28;80373;-66
2021/05/17 14:24:01;;;;;;;4.03;2.70;;;24.40;46.00;;;;;;6183870;28;80508;-68
2021/05/17 14:27:02;;;;;;;5.38;2.90;;;24.30;46.00;;;;;;6183167;28;80828;-67
2021/05/17 14:30:02;;;;;;;4.95;2.38;;;24.30;46.20;;;;;;6179879;28;81119;-67
2021/05/17 14:33:03;;;;;;;7.38;2.88;;;24.40;47.20;;;;;;6184376;28;80563;-68
2021/05/17 14:36:03;;;;;;;4.32;2.70;;;24.40;46.80;;;;;;6170299;28;80568;-67
2021/05/17 14:39:05;;;;;;;4.55;2.63;;;24.40;47.10;;;;;;6159547;28;83508;-67
2021/05/17 14:42:05;;;;;;;9.23;2.50;;;24.40;46.40;;;;;;6157565;28;81157;-64
2021/05/17 14:45:06;;;;;;;4.70;2.67;;;24.40;46.60;;;;;;6179493;28;80577;-66
2021/05/17 14:48:06;;;;;;;7.00;2.35;;;24.40;46.40;;;;;;6176593;28;80321;-67
2021/05/17 14:51:07;;;;;;;3.97;2.50;;;24.40;46.40;;;;;;6174244;28;81539;-65
2021/05/17 14:54:07;;;;;;;5.50;2.67;;;24.40;46.50;;;;;;6168591;28;83032;-67
2021/05/17 14:57:08;;;;;;;3.42;2.25;;;24.40;46.50;;;;;;6172554;28;80640;-67
2021/05/17 15:00:08;;;;;;;4.65;2.90;;;24.30;47.20;;;;;;6182423;28;80449;-67
2021/05/17 15:03:09;;;;;;;3.67;2.53;;;24.30;46.60;;;;;;6173048;28;82897;-69
2021/05/17 15:06:09;;;;;;;3.92;2.42;;;24.30;47.10;;;;;;6179092;28;80585;-67
2021/05/17 15:09:10;;;;;;;3.50;2.22;;;24.30;47.20;;;;;;6169126;28;80345;-67
2021/05/17 15:12:10;;;;;;;5.60;3.40;;;24.40;47.00;;;;;;6173709;28;80776;-68
2021/05/17 15:15:11;;;;;;;10.40;2.67;;;24.40;47.10;;;;;;6182336;28;80273;-66
2021/05/17 15:18:12;;;;;;;5.18;2.83;;;24.40;47.00;;;;;;6179969;28;80656;-68
2021/05/17 15:21:12;;;;;;;12.57;3.55;;;24.40;46.90;;;;;;6183726;28;80496;-67
2021/05/17 15:24:13;;;;;;;5.03;2.88;;;24.40;46.90;;;;;;6172983;28;80673;-67
2021/05/17 15:27:13;;;;;;;5.00;2.95;;;24.40;46.80;;;;;;6182157;28;83236;-66
2021/05/17 15:30:14;;;;;;;5.28;2.72;;;24.40;46.80;;;;;;6166519;28;81400;-66
2021/05/17 15:33:14;;;;;;;8.48;3.42;;;24.30;47.40;;;;;;6171504;28;81250;-67
2021/05/17 15:36:15;;;;;;;11.25;3.38;;;24.30;46.90;;;;;;6181250;28;80598;-67
2021/05/17 15:39:15;;;;;;;5.28;3.20;;;24.30;47.00;;;;;;6169541;28;80309;-66
2021/05/17 15:42:16;;;;;;;5.68;3.00;;;24.20;47.10;;;;;;6171889;28;81574;-66
2021/05/17 15:45:16;;;;;;;9.45;4.35;;;24.20;47.20;;;;;;6181770;28;81866;-66
2021/05/17 15:48:17;;;;;;;4.63;3.20;;;24.10;47.20;;;;;;6181075;28;80489;-66
2021/05/17 15:51:21;;;;;;;6.22;3.50;;;24.10;47.30;;;;;;6167092;28;84166;-66
2021/05/17 15:54:21;;;;;;;4.32;3.05;;;24.10;47.50;;;;;;6157482;28;80922;-65
2021/05/17 15:57:22;;;;;;;5.63;3.10;;;24.00;47.50;;;;;;6159192;28;80620;-67
2021/05/17 16:00:24;;;;;;;6.43;3.17;;;24.00;47.90;;;;;;6173673;28;83260;-67
2021/05/17 16:03:25;;;;;;;6.40;3.70;;;23.90;47.70;;;;;;6182342;28;80598;-67
2021/05/17 16:06:25;;;;;;;8.10;3.00;;;24.00;47.90;;;;;;6181248;28;81530;-67
2021/05/17 16:09:26;;;;;;;7.13;3.83;;;23.90;48.00;;;;;;6167961;28;80714;-67
2021/05/17 16:12:31;;;;;;;10.95;5.10;;;23.90;48.20;;;;;;6160023;28;81420;-67
2021/05/17 16:15:51;;;;;;;9.43;4.50;;;24.00;48.00;;;;;;6171571;28;81951;-67